Time;durP1;ratioP1;P1;durP2;ratioP2;P2;SDS_P1;SDS_P2;PMS_P1;PMS_P2;Temp;Humidity;BMP_temperature;BMP_pressure;BME280_temperature;BME280_humidity;BME280_pressure;Samples;Min_cycle;Max_cycle;Signal;HPM_P1;HPM_P2
2021/10/01 00:01:54;;;;;;;3.05;0.25;;;11.70;99.90;;;;;;6114858;23;20042;-91
2021/10/01 00:04:24;;;;;;;1.40;0.17;;;11.70;99.90;;;;;;6090914;23;20061;-91
2021/10/01 00:06:52;;;;;;;0.98;0.10;;;11.60;99.90;;;;;;6114503;23;20101;-93
2021/10/01 00:09:18;;;;;;;2.33;0.20;;;11.60;99.90;;;;;;6114768;23;20038;-90
2021/10/01 00:11:51;;;;;;;2.40;0.20;;;11.50;99.90;;;;;;6114624;23;20013;-92
2021/10/01 00:14:17;;;;;;;2.65;0.30;;;11.50;99.90;;;;;;6090689;23;20018;-92
2021/10/01 00:16:43;;;;;;;1.58;0.10;;;11.50;99.90;;;;;;6090923;23;20006;-91
2021/10/01 00:19:09;;;;;;;2.80;0.82;;;11.50;99.90;;;;;;6090599;23;20014;-91
2021/10/01 00:21:35;;;;;;;2.03;0.20;;;11.50;99.90;;;;;;6090779;23;20427;-93
2021/10/01 00:24:01;;;;;;;1.45;0.20;;;11.40;99.90;;;;;;6114752;23;20017;-86
2021/10/01 00:26:28;;;;;;;1.63;0.25;;;11.40;99.90;;;;;;6090804;23;20006;-91
2021/10/01 00:28:53;;;;;;;0.75;0.10;;;11.40;99.90;;;;;;6091278;23;20037;-91
2021/10/01 00:31:19;;;;;;;1.42;0.10;;;11.40;99.90;;;;;;6114996;23;20005;-88
2021/10/01 00:33:44;;;;;;;1.88;0.38;;;11.40;99.90;;;;;;6116323;23;20017;-93
2021/10/01 00:36:10;;;;;;;2.00;0.20;;;11.40;99.90;;;;;;6114861;23;20081;-85
2021/10/01 00:38:35;;;;;;;2.45;0.17;;;11.40;99.90;;;;;;6114673;23;20046;-89
2021/10/01 00:41:01;;;;;;;2.35;0.20;;;11.40;99.90;;;;;;6114477;23;20013;-91
2021/10/01 00:43:27;;;;;;;3.75;0.20;;;11.40;99.90;;;;;;6090654;23;20030;-90
2021/10/01 00:45:53;;;;;;;3.10;0.20;;;11.40;99.90;;;;;;6116125;23;20439;-87
2021/10/01 00:48:18;;;;;;;3.22;0.47;;;11.40;99.90;;;;;;6140892;23;20010;-88
2021/10/01 00:50:45;;;;;;;1.95;0.65;;;11.40;99.90;;;;;;6144441;23;20096;-90
2021/10/01 00:53:12;;;;;;;2.17;0.13;;;11.40;99.90;;;;;;6146018;23;20041;-88
2021/10/01 00:55:37;;;;;;;2.15;0.20;;;11.40;99.90;;;;;;6170809;23;20423;-89
2021/10/01 00:58:04;;;;;;;1.73;0.35;;;11.40;99.90;;;;;;6145911;23;20032;-88
2021/10/01 01:00:30;;;;;;;1.38;0.10;;;11.30;99.90;;;;;;6121499;23;20009;-90
2021/10/01 01:03:03;;;;;;;1.90;0.20;;;11.30;99.90;;;;;;6145943;23;20029;-88
2021/10/01 01:05:54;;;;;;;1.77;0.20;;;11.30;99.90;;;;;;6121511;23;20005;-88
2021/10/01 01:08:23;;;;;;;1.45;0.13;;;11.30;99.90;;;;;;6121344;23;20040;-87
2021/10/01 01:10:59;;;;;;;1.00;0.10;;;11.30;99.90;;;;;;6121269;23;20013;-89
2021/10/01 01:13:40;;;;;;;1.27;0.10;;;11.20;99.90;;;;;;6121593;23;20040;-88
2021/10/01 01:16:16;;;;;;;0.68;0.10;;;11.20;99.90;;;;;;6121465;23;20025;-87
2021/10/01 01:18:51;;;;;;;1.60;0.20;;;11.30;99.90;;;;;;6121848;23;20338;-85
2021/10/01 01:21:51;;;;;;;2.55;0.10;;;11.20;99.90;;;;;;6170140;23;20013;-92
2021/10/01 01:24:40;;;;;;;1.40;0.10;;;11.20;99.90;;;;;;6145571;23;20008;-86
2021/10/01 01:27:49;;;;;;;0.90;0.10;;;11.20;99.90;;;;;;6147954;23;20009;-89
2021/10/01 01:30:18;;;;;;;1.27;0.20;;;11.20;99.90;;;;;;6121122;23;20006;-90
2021/10/01 01:32:57;;;;;;;0.90;0.20;;;11.20;99.90;;;;;;6122000;23;20418;-88
2021/10/01 01:35:27;;;;;;;1.90;0.10;;;11.10;99.90;;;;;;6120887;23;20020;-90
2021/10/01 01:38:24;;;;;;;1.17;0.10;;;11.20;99.90;;;;;;6121537;23;20027;-91
2021/10/01 01:40:54;;;;;;;0.63;0.10;;;11.20;99.90;;;;;;6120999;23;20009;-90
2021/10/01 01:43:21;;;;;;;1.23;0.10;;;11.10;99.90;;;;;;6121206;23;20021;-90
2021/10/01 01:45:47;;;;;;;1.50;0.10;;;11.10;99.90;;;;;;6115485;23;20077;-91
2021/10/01 01:48:13;;;;;;;1.92;0.30;;;11.10;99.90;;;;;;6115903;23;20014;-89
2021/10/01 01:50:41;;;;;;;1.52;0.20;;;11.10;99.90;;;;;;6116206;23;20028;-93
2021/10/01 01:53:09;;;;;;;2.05;0.20;;;11.20;99.90;;;;;;6140477;23;20022;-90
2021/10/01 01:55:36;;;;;;;1.58;0.20;;;11.20;99.90;;;;;;6140203;23;20006;-88
2021/10/01 01:58:01;;;;;;;2.25;0.20;;;11.20;99.90;;;;;;6115825;23;20026;-91
2021/10/01 02:00:47;;;;;;;1.50;0.20;;;11.20;99.90;;;;;;6141700;23;20010;-87
2021/10/01 02:03:16;;;;;;;2.85;0.10;;;11.20;99.90;;;;;;6164858;23;20010;-91
2021/10/01 02:05:47;;;;;;;2.13;0.15;;;11.30;99.90;;;;;;6164797;23;20028;-91
2021/10/01 02:08:14;;;;;;;1.48;0.20;;;11.30;99.90;;;;;;6140368;23;20054;-90
2021/10/01 02:10:41;;;;;;;1.90;0.10;;;11.30;99.90;;;;;;6115603;23;20006;-90
2021/10/01 02:13:09;;;;;;;3.10;0.68;;;11.30;99.90;;;;;;6140264;23;20040;-91
2021/10/01 02:15:40;;;;;;;2.33;0.10;;;11.30;99.90;;;;;;6140152;23;20013;-88
2021/10/01 02:18:07;;;;;;;1.75;0.20;;;11.30;99.90;;;;;;6115688;23;20013;-90
2021/10/01 02:20:35;;;;;;;1.58;0.20;;;11.30;99.90;;;;;;6115522;23;20034;-90
2021/10/01 02:23:02;;;;;;;0.90;0.10;;;11.30;99.90;;;;;;6140311;23;20021;-93
2021/10/01 02:28:39;;;;;;;3.28;0.20;;;11.40;99.90;;;;;;6139789;23;20016;-90
2021/10/01 02:31:09;;;;;;;1.80;0.10;;;11.40;99.90;;;;;;6115187;23;20038;-89
2021/10/01 02:33:44;;;;;;;2.33;0.20;;;11.30;99.90;;;;;;6139947;23;20022;-91
2021/10/01 02:36:11;;;;;;;2.92;0.20;;;11.30;99.90;;;;;;6141548;23;20014;-91
2021/10/01 02:38:40;;;;;;;1.48;0.20;;;11.30;99.90;;;;;;6116349;23;20040;-91
2021/10/01 02:41:06;;;;;;;2.17;0.10;;;11.30;99.90;;;;;;6115028;23;20424;-88
2021/10/01 02:43:32;;;;;;;3.17;0.20;;;11.30;99.90;;;;;;6115283;23;20010;-90
2021/10/01 02:45:57;;;;;;;0.82;0.10;;;11.30;99.90;;;;;;6115047;23;20010;-93
2021/10/01 02:48:23;;;;;;;1.98;0.30;;;11.40;99.90;;;;;;6115444;23;20010;-92
2021/10/01 02:50:59;;;;;;;0.70;0.10;;;11.40;99.90;;;;;;6115291;23;20017;-91
2021/10/01 02:53:37;;;;;;;1.60;0.10;;;11.40;99.90;;;;;;6115395;23;20026;-90
2021/10/01 02:56:29;;;;;;;1.30;0.10;;;11.40;99.90;;;;;;6115661;23;20006;-91
2021/10/01 02:58:59;;;;;;;2.90;0.20;;;11.40;99.90;;;;;;6164208;23;20010;-86
2021/10/01 03:01:29;;;;;;;2.80;0.20;;;11.40;99.90;;;;;;6115255;23;20009;-90
2021/10/01 03:04:05;;;;;;;3.50;0.73;;;11.40;99.90;;;;;;6164468;23;20074;-90
2021/10/01 03:06:34;;;;;;;1.92;0.10;;;11.40;99.90;;;;;;6115429;23;20013;-90
2021/10/01 03:09:02;;;;;;;0.82;0.10;;;11.40;99.90;;;;;;6114958;23;20077;-93
2021/10/01 03:11:30;;;;;;;1.95;0.15;;;11.30;99.90;;;;;;6115050;23;20038;-88
2021/10/01 03:13:57;;;;;;;2.42;0.30;;;11.30;99.90;;;;;;6139274;23;20021;-92
2021/10/01 03:16:24;;;;;;;1.92;0.20;;;11.30;99.90;;;;;;6115053;23;20006;-92
2021/10/01 03:18:51;;;;;;;1.48;0.20;;;11.30;99.90;;;;;;6115056;23;20014;-92
2021/10/01 03:21:19;;;;;;;0.93;0.63;;;11.30;99.90;;;;;;6114853;23;20012;-91
2021/10/01 03:23:45;;;;;;;1.00;0.20;;;11.30;99.90;;;;;;6164372;23;20010;-90
2021/10/01 03:26:12;;;;;;;2.05;0.10;;;11.30;99.90;;;;;;6163993;23;20457;-91
2021/10/01 03:28:40;;;;;;;1.08;0.10;;;11.40;99.90;;;;;;6114966;23;20017;-90
2021/10/01 03:31:06;;;;;;;1.08;0.20;;;11.40;99.90;;;;;;6139206;23;20455;-90
2021/10/01 03:33:34;;;;;;;1.95;0.20;;;11.40;99.90;;;;;;6115500;23;20029;-89
2021/10/01 03:36:01;;;;;;;2.58;0.10;;;11.30;99.90;;;;;;6114826;23;20057;-93
2021/10/01 03:38:27;;;;;;;3.05;0.20;;;11.30;99.90;;;;;;6115244;23;20010;-88
2021/10/01 03:40:59;;;;;;;0.68;0.10;;;11.20;99.90;;;;;;6115378;23;20037;-92
2021/10/01 03:43:26;;;;;;;;;;;11.10;99.90;;;;;;6139780;23;20013;-92
2021/10/01 03:45:53;;;;;;;1.63;0.10;;;11.10;99.90;;;;;;6114271;23;19912;-88
2021/10/01 03:48:20;;;;;;;1.80;0.20;;;11.10;99.90;;;;;;6115175;23;20025;-89
2021/10/01 03:50:55;;;;;;;1.55;0.20;;;11.10;99.90;;;;;;6139310;23;20002;-89
2021/10/01 03:53:21;;;;;;;2.08;0.20;;;11.10;99.90;;;;;;6114920;23;20020;-92
2021/10/01 03:55:47;;;;;;;2.67;0.63;;;11.10;99.90;;;;;;6139510;23;20002;-87
2021/10/01 03:58:14;;;;;;;2.58;0.30;;;11.10;99.90;;;;;;6139374;23;20065;-88
2021/10/01 04:00:40;;;;;;;3.08;0.20;;;11.00;99.90;;;;;;6114800;23;20078;-88
2021/10/01 04:03:06;;;;;;;2.45;0.20;;;11.00;99.90;;;;;;6114968;23;20010;-89
2021/10/01 04:05:41;;;;;;;0.95;0.10;;;11.00;99.90;;;;;;6116818;23;20009;-90
2021/10/01 04:08:09;;;;;;;1.23;0.10;;;10.90;99.90;;;;;;6115038;23;20010;-90
2021/10/01 04:10:39;;;;;;;1.58;0.20;;;10.90;99.90;;;;;;6115433;23;20070;-88
2021/10/01 04:13:07;;;;;;;2.75;0.20;;;10.90;99.90;;;;;;6114741;23;20017;-89
2021/10/01 04:15:34;;;;;;;0.55;0.10;;;10.90;99.90;;;;;;6114716;23;20078;-92
2021/10/01 04:18:00;;;;;;;1.38;0.10;;;10.90;99.90;;;;;;6114794;23;20018;-87
2021/10/01 04:20:26;;;;;;;1.52;0.17;;;10.80;99.90;;;;;;6114712;23;20006;-92
2021/10/01 04:23:10;;;;;;;3.08;0.17;;;10.80;99.90;;;;;;6116872;23;20016;-93
2021/10/01 04:26:01;;;;;;;2.85;0.17;;;10.80;99.90;;;;;;6141498;23;20562;-94
2021/10/01 04:28:28;;;;;;;2.67;0.20;;;10.90;99.90;;;;;;6117217;23;20030;-92
2021/10/01 04:30:59;;;;;;;1.05;0.10;;;10.90;99.90;;;;;;6117539;23;20010;-90
2021/10/01 04:33:25;;;;;;;1.58;0.20;;;10.90;99.90;;;;;;6116503;23;20104;-90
2021/10/01 04:35:54;;;;;;;2.92;0.10;;;10.80;99.90;;;;;;6117444;23;20013;-90
2021/10/01 04:38:21;;;;;;;0.50;0.10;;;10.90;99.90;;;;;;6116567;23;20338;-92
2021/10/01 04:40:49;;;;;;;1.13;0.10;;;10.90;99.90;;;;;;6165680;23;20056;-90
2021/10/01 04:43:14;;;;;;;1.35;0.10;;;10.90;99.90;;;;;;6116765;23;20032;-90
2021/10/01 04:46:00;;;;;;;0.93;0.10;;;11.00;99.90;;;;;;6149562;23;20028;-92
2021/10/01 04:48:25;;;;;;;0.65;0.10;;;11.10;99.90;;;;;;6121757;23;20342;-91
2021/10/01 04:50:52;;;;;;;1.65;0.10;;;11.20;99.90;;;;;;6121790;23;20041;-89
2021/10/01 04:53:18;;;;;;;2.15;0.20;;;11.20;99.90;;;;;;6121311;23;20025;-92
2021/10/01 04:55:46;;;;;;;2.40;0.20;;;11.30;99.90;;;;;;6121601;23;20006;-90
2021/10/01 04:58:13;;;;;;;0.60;0.10;;;11.30;99.90;;;;;;6145902;23;20006;-92
2021/10/01 05:01:01;;;;;;;1.80;0.30;;;11.30;99.90;;;;;;6149852;23;20014;-91
2021/10/01 05:03:42;;;;;;;1.23;0.10;;;11.30;99.90;;;;;;6149079;23;20060;-91
2021/10/01 05:06:30;;;;;;;1.50;0.35;;;11.40;99.90;;;;;;6147481;23;20020;-92
2021/10/01 05:09:16;;;;;;;1.95;0.10;;;11.30;99.90;;;;;;6149944;23;20013;-91
2021/10/01 05:12:00;;;;;;;0.75;0.10;;;11.30;99.90;;;;;;6149635;23;20024;-89
2021/10/01 05:14:44;;;;;;;2.47;0.15;;;11.30;99.90;;;;;;6149787;23;20031;-89
2021/10/01 05:17:28;;;;;;;0.85;0.10;;;11.20;99.90;;;;;;6147759;23;20101;-88
2021/10/01 05:20:13;;;;;;;3.22;0.20;;;11.20;99.90;;;;;;6149376;23;20025;-90
2021/10/01 05:22:46;;;;;;;0.93;0.10;;;11.10;99.90;;;;;;6122406;23;20014;-88
2021/10/01 05:25:12;;;;;;;1.50;0.10;;;11.20;99.90;;;;;;6121235;23;20025;-91
2021/10/01 05:27:39;;;;;;;1.75;0.10;;;11.20;99.90;;;;;;6121175;23;20029;-91
2021/10/01 05:30:06;;;;;;;3.65;0.10;;;11.20;99.90;;;;;;6119574;23;20018;-89
2021/10/01 05:32:32;;;;;;;3.03;0.20;;;11.20;99.90;;;;;;6120231;23;20006;-89
2021/10/01 05:34:57;;;;;;;2.10;0.20;;;11.20;99.90;;;;;;6120982;23;20040;-89
2021/10/01 05:37:23;;;;;;;1.95;0.10;;;11.30;99.90;;;;;;6121048;23;20033;-88
2021/10/01 05:39:48;;;;;;;1.55;0.10;;;11.40;99.90;;;;;;6120966;23;20009;-90
2021/10/01 05:42:14;;;;;;;1.05;0.10;;;11.40;99.90;;;;;;6120762;23;20002;-89
2021/10/01 05:45:00;;;;;;;3.42;0.20;;;11.50;99.90;;;;;;6120455;23;20048;-90
2021/10/01 05:47:55;;;;;;;1.92;0.10;;;11.50;99.90;;;;;;6109411;23;20019;-87
2021/10/01 05:50:42;;;;;;;1.55;0.10;;;11.50;99.90;;;;;;6089379;23;20041;-88
2021/10/01 05:56:29;;;;;;;4.25;0.20;;;11.60;99.90;;;;;;6109018;23;20144;-89
2021/10/01 05:58:58;;;;;;;1.00;0.10;;;11.60;99.90;;;;;;6085235;23;20018;-87
2021/10/01 06:01:24;;;;;;;3.33;0.20;;;11.60;99.90;;;;;;6084204;23;20070;-89
2021/10/01 06:03:51;;;;;;;3.67;0.20;;;11.60;99.90;;;;;;6083600;23;20068;-88
2021/10/01 06:06:17;;;;;;;1.92;0.68;;;11.60;99.90;;;;;;6084353;23;20030;-90
2021/10/01 06:08:44;;;;;;;0.95;0.15;;;11.70;99.90;;;;;;6084408;23;20062;-88
2021/10/01 06:11:10;;;;;;;1.80;0.20;;;11.70;99.90;;;;;;6084612;23;20443;-88
2021/10/01 06:13:37;;;;;;;1.05;0.10;;;11.70;99.90;;;;;;6084346;23;20026;-87
2021/10/01 06:16:03;;;;;;;0.68;0.10;;;11.70;99.90;;;;;;6084074;23;20014;-90
2021/10/01 06:18:28;;;;;;;1.13;0.15;;;11.70;99.90;;;;;;6084606;23;20132;-89
2021/10/01 06:20:54;;;;;;;1.70;0.17;;;11.70;99.90;;;;;;6084243;23;20006;-88
2021/10/01 06:23:22;;;;;;;2.53;0.10;;;11.70;99.90;;;;;;6085159;23;20018;-91
2021/10/01 06:25:48;;;;;;;1.95;0.10;;;11.70;99.90;;;;;;6119985;23;20009;-90
2021/10/01 06:28:14;;;;;;;0.80;0.10;;;11.70;99.90;;;;;;6144602;23;20029;-87
2021/10/01 06:30:40;;;;;;;0.65;0.10;;;11.80;99.90;;;;;;6119062;23;20010;-88
2021/10/01 06:33:06;;;;;;;0.70;0.10;;;11.80;99.90;;;;;;6143691;23;20011;-88
2021/10/01 06:35:32;;;;;;;2.05;0.15;;;11.90;99.90;;;;;;6119756;23;20009;-88
2021/10/01 06:37:58;;;;;;;4.18;0.20;;;11.90;99.90;;;;;;6119465;23;20009;-88
2021/10/01 06:40:23;;;;;;;3.50;0.17;;;12.00;99.90;;;;;;6119387;23;20010;-89
2021/10/01 06:42:51;;;;;;;0.93;0.10;;;12.10;99.90;;;;;;6119434;23;20066;-89
2021/10/01 06:45:30;;;;;;;0.75;0.10;;;12.10;99.90;;;;;;6118281;23;20004;-88
2021/10/01 06:48:10;;;;;;;1.85;0.20;;;12.10;99.90;;;;;;6143630;23;20024;-88
2021/10/01 08:20:32;;;;;;;0.63;0.00;;;13.90;99.90;;;;;;6141764;23;20468;-87
2021/10/01 08:22:58;;;;;;;2.85;0.10;;;14.00;99.90;;;;;;6140869;23;20010;-86
2021/10/01 08:25:23;;;;;;;2.42;0.10;;;14.00;99.90;;;;;;6141185;23;20464;-87
2021/10/01 08:27:49;;;;;;;2.10;0.10;;;14.20;99.90;;;;;;6141703;23;20013;-85
2021/10/01 08:30:15;;;;;;;2.80;0.10;;;14.70;99.90;;;;;;6141696;23;20009;-85
2021/10/01 08:32:41;;;;;;;1.17;0.00;;;14.80;99.90;;;;;;6141654;23;20019;-86
2021/10/01 08:35:09;;;;;;;3.85;0.20;;;15.00;99.90;;;;;;6141756;23;20014;-87
2021/10/01 08:37:35;;;;;;;3.13;0.10;;;14.90;99.90;;;;;;6141901;23;20020;-85
2021/10/01 08:40:02;;;;;;;4.68;0.20;;;14.80;99.90;;;;;;6141961;23;20337;-85
2021/10/01 08:42:48;;;;;;;1.27;0.25;;;14.90;99.90;;;;;;6145266;23;20013;-84
2021/10/01 08:45:17;;;;;;;0.68;0.10;;;15.10;99.90;;;;;;6141727;23;20029;-85
2021/10/01 08:47:45;;;;;;;2.35;0.20;;;15.20;99.90;;;;;;6141262;23;20022;-84
2021/10/01 08:50:14;;;;;;;0.85;0.03;;;15.30;99.90;;;;;;6141349;23;20033;-85
2021/10/01 08:52:40;;;;;;;1.98;0.22;;;15.40;99.90;;;;;;6117217;23;20025;-85
2021/10/01 08:55:08;;;;;;;2.95;0.20;;;15.40;99.90;;;;;;6141886;23;20006;-85
2021/10/01 08:57:33;;;;;;;2.55;0.10;;;15.30;99.90;;;;;;6141330;23;20434;-86
2021/10/01 09:00:00;;;;;;;2.13;0.10;;;15.40;99.90;;;;;;6141970;23;20006;-86
2021/10/01 09:02:26;;;;;;;1.67;0.30;;;15.40;99.90;;;;;;6141358;23;20020;-88
2021/10/01 09:04:58;;;;;;;1.63;0.40;;;15.50;99.90;;;;;;6142024;23;20338;-86
2021/10/01 09:07:24;;;;;;;2.60;0.20;;;15.60;99.90;;;;;;6141111;23;20058;-87
2021/10/01 09:09:52;;;;;;;1.25;0.13;;;15.30;99.90;;;;;;6144000;23;20065;-86
2021/10/01 09:12:19;;;;;;;2.10;0.20;;;15.40;99.90;;;;;;6119731;23;20009;-87
2021/10/01 09:14:56;;;;;;;1.90;0.20;;;15.50;99.90;;;;;;6168959;23;20013;-86
2021/10/01 09:17:24;;;;;;;2.78;0.10;;;15.30;99.90;;;;;;6144455;23;20020;-86
2021/10/01 09:19:51;;;;;;;2.08;0.20;;;15.30;99.90;;;;;;6119866;23;20040;-85
2021/10/01 09:22:30;;;;;;;0.85;0.10;;;15.20;99.90;;;;;;6143988;23;20020;-85
2021/10/01 09:25:22;;;;;;;1.97;0.30;;;15.30;99.90;;;;;;6168780;23;20037;-85
2021/10/01 09:28:02;;;;;;;2.58;0.20;;;15.50;99.90;;;;;;6145093;23;20010;-84
2021/10/01 09:30:27;;;;;;;1.70;0.10;;;15.60;99.90;;;;;;6144227;23;20006;-85
2021/10/01 09:33:08;;;;;;;1.25;0.10;;;15.50;99.90;;;;;;6144013;23;20092;-86
2021/10/01 09:35:34;;;;;;;1.98;0.20;;;15.40;99.90;;;;;;6143913;23;20024;-85
2021/10/01 09:38:14;;;;;;;4.80;0.20;;;15.40;99.90;;;;;;6144108;23;20001;-85
2021/10/01 09:40:41;;;;;;;1.48;0.10;;;15.50;99.90;;;;;;6143432;23;20017;-85
2021/10/01 09:43:25;;;;;;;1.25;0.17;;;15.50;99.90;;;;;;6119642;23;20056;-85
2021/10/01 09:46:08;;;;;;;2.92;0.20;;;15.20;99.90;;;;;;6137165;23;20022;-85
2021/10/01 09:48:39;;;;;;;3.00;0.10;;;15.10;99.90;;;;;;6139589;23;20129;-85
2021/10/01 09:51:13;;;;;;;2.38;0.17;;;14.90;99.90;;;;;;6139565;23;20072;-87
2021/10/01 09:53:48;;;;;;;1.23;0.20;;;14.90;99.90;;;;;;6135850;23;20010;-85
2021/10/01 09:56:32;;;;;;;2.53;0.20;;;14.90;99.90;;;;;;6139844;23;20016;-84
2021/10/01 10:02:14;;;;;;;1.85;0.20;;;15.10;99.90;;;;;;6079426;23;20419;-85
2021/10/01 10:05:00;;;;;;;1.80;0.20;;;15.30;99.90;;;;;;6081294;23;20010;-85
2021/10/01 10:07:27;;;;;;;2.25;0.28;;;15.30;99.90;;;;;;6080306;23;20555;-85
2021/10/01 10:10:07;;;;;;;1.55;0.10;;;15.30;99.90;;;;;;6080449;23;20014;-86
2021/10/01 10:12:33;;;;;;;1.10;0.17;;;15.40;99.90;;;;;;6105251;23;20041;-87
2021/10/01 10:15:00;;;;;;;2.35;0.20;;;15.40;99.90;;;;;;6081186;23;20011;-84
2021/10/01 10:17:28;;;;;;;2.80;0.20;;;15.60;99.90;;;;;;6080682;23;20006;-85
2021/10/01 10:19:56;;;;;;;4.22;0.10;;;15.80;99.90;;;;;;6080298;23;20030;-83
2021/10/01 10:22:24;;;;;;;3.92;0.17;;;16.30;99.90;;;;;;6080483;23;20011;-84
2021/10/01 10:24:51;;;;;;;1.15;0.10;;;16.30;99.90;;;;;;6080684;23;20014;-87
2021/10/01 10:27:18;;;;;;;3.33;0.20;;;16.50;99.90;;;;;;6080636;23;20017;-86
2021/10/01 10:29:45;;;;;;;2.20;0.28;;;16.70;99.90;;;;;;6080910;23;20033;-86
2021/10/01 10:32:13;;;;;;;3.10;0.30;;;16.80;99.90;;;;;;6080554;23;20003;-84
2021/10/01 10:34:52;;;;;;;2.92;0.10;;;17.00;99.90;;;;;;6080597;23;20023;-83
2021/10/01 10:37:19;;;;;;;2.53;0.10;;;16.70;99.90;;;;;;6080430;23;20011;-84
2021/10/01 10:39:54;;;;;;;3.25;0.13;;;16.60;99.90;;;;;;6080255;23;20039;-86
2021/10/01 10:42:32;;;;;;;2.25;0.20;;;16.60;99.90;;;;;;6080681;23;20014;-84
2021/10/01 10:45:03;;;;;;;1.48;0.10;;;16.30;99.90;;;;;;6104410;23;20250;-86
2021/10/01 10:47:45;;;;;;;1.90;0.20;;;16.30;99.90;;;;;;6080156;23;20050;-86
2021/10/01 10:50:26;;;;;;;0.75;0.15;;;16.40;99.90;;;;;;6080032;23;20014;-85
2021/10/01 10:53:17;;;;;;;1.27;0.20;;;16.40;99.90;;;;;;6079850;23;20022;-85
2021/10/01 10:55:43;;;;;;;2.78;0.20;;;16.40;99.90;;;;;;6070696;23;20015;-86
2021/10/01 10:58:21;;;;;;;2.53;0.10;;;16.70;99.90;;;;;;6080094;23;20058;-86
2021/10/01 11:00:55;;;;;;;1.13;0.20;;;16.50;99.90;;;;;;6080058;23;20062;-85
2021/10/01 11:03:24;;;;;;;1.20;0.10;;;16.50;99.90;;;;;;6104293;23;20021;-85
2021/10/01 11:06:14;;;;;;;0.95;0.10;;;16.60;99.90;;;;;;6056494;23;20175;-85
2021/10/01 11:08:47;;;;;;;;;;;16.70;99.90;;;;;;6069731;23;20311;-86
2021/10/01 11:11:28;;;;;;;2.45;0.20;;;16.80;99.90;;;;;;6104490;23;19954;-85
2021/10/01 11:14:25;;;;;;;1.65;0.10;;;16.80;99.90;;;;;;6104192;23;20035;-86
2021/10/01 11:16:54;;;;;;;1.90;0.10;;;16.70;99.90;;;;;;6073770;23;20054;-86
2021/10/01 11:19:40;;;;;;;1.25;0.10;;;16.60;99.90;;;;;;6080426;23;20064;-86
2021/10/01 11:22:30;;;;;;;1.85;0.10;;;16.30;99.90;;;;;;6056313;23;20092;-86
2021/10/01 11:25:17;;;;;;;0.70;0.10;;;16.40;99.90;;;;;;6080718;23;20002;-86
2021/10/01 11:27:54;;;;;;;1.48;0.10;;;16.60;99.90;;;;;;6056348;23;20022;-86
2021/10/01 11:30:22;;;;;;;3.90;0.13;;;16.70;99.90;;;;;;6056016;23;20006;-85
2021/10/01 11:32:48;;;;;;;1.40;0.10;;;16.90;99.90;;;;;;6080100;23;20019;-86
2021/10/01 11:35:16;;;;;;;1.92;0.10;;;17.30;99.90;;;;;;6080257;23;20018;-87
2021/10/01 11:37:45;;;;;;;0.80;0.10;;;17.40;99.90;;;;;;6080185;23;20033;-87
2021/10/01 11:40:19;;;;;;;3.30;0.87;;;17.50;99.90;;;;;;6079830;23;20007;-87
2021/10/01 11:42:47;;;;;;;1.35;0.10;;;17.70;99.90;;;;;;6104128;23;20013;-85
2021/10/01 11:45:26;;;;;;;1.50;0.10;;;18.10;99.90;;;;;;6079804;23;20018;-85
2021/10/01 11:47:58;;;;;;;3.22;0.40;;;18.10;99.90;;;;;;6080263;23;20026;-86
2021/10/01 11:50:42;;;;;;;3.05;0.10;;;18.00;99.90;;;;;;6080147;23;20014;-86
2021/10/01 11:53:23;;;;;;;2.22;0.20;;;17.90;99.90;;;;;;6079894;23;20086;-85
2021/10/01 11:56:02;;;;;;;1.73;0.20;;;17.80;99.90;;;;;;6080151;23;20010;-87
2021/10/01 11:58:29;;;;;;;2.55;0.13;;;17.60;99.90;;;;;;6080249;23;20062;-86
2021/10/01 12:01:07;;;;;;;2.80;0.35;;;17.40;99.90;;;;;;6056243;23;20018;-86
2021/10/01 12:03:32;;;;;;;0.60;0.10;;;17.50;99.90;;;;;;6079942;23;20013;-85
2021/10/01 12:05:58;;;;;;;1.52;0.10;;;17.60;99.90;;;;;;6080548;23;20023;-87
2021/10/01 12:08:25;;;;;;;4.18;0.20;;;17.60;99.90;;;;;;6056398;23;20010;-86
2021/10/01 12:10:55;;;;;;;2.15;0.20;;;17.60;99.90;;;;;;6079790;23;20007;-86
2021/10/01 12:13:25;;;;;;;1.17;0.10;;;17.70;99.90;;;;;;6080114;23;20101;-86
2021/10/01 12:15:57;;;;;;;1.15;0.30;;;17.80;99.90;;;;;;6079979;23;20027;-85
2021/10/01 12:18:30;;;;;;;0.68;0.10;;;17.90;99.90;;;;;;6080161;23;20042;-86
2021/10/01 12:20:59;;;;;;;1.73;0.20;;;17.90;99.90;;;;;;6055987;23;20110;-85
2021/10/01 12:23:31;;;;;;;1.38;0.20;;;17.70;99.90;;;;;;6080127;23;20003;-86
2021/10/01 12:26:13;;;;;;;2.20;0.20;;;17.90;99.90;;;;;;6079839;23;20011;-86
2021/10/01 12:28:40;;;;;;;1.00;0.10;;;17.90;99.90;;;;;;6079978;23;20033;-86
2021/10/01 12:31:06;;;;;;;1.73;0.20;;;17.90;99.90;;;;;;6079822;23;20017;-86
2021/10/01 12:33:32;;;;;;;0.93;0.10;;;17.90;99.90;;;;;;6057619;23;20022;-87
2021/10/01 12:35:58;;;;;;;1.65;0.10;;;17.70;99.90;;;;;;6078402;23;20117;-87
2021/10/01 12:38:25;;;;;;;1.92;0.10;;;17.80;99.90;;;;;;6078774;23;20432;-85
2021/10/01 12:41:23;;;;;;;2.67;0.20;;;17.80;99.90;;;;;;6078474;23;20003;-86
2021/10/01 12:43:59;;;;;;;1.08;0.10;;;17.80;99.90;;;;;;6010357;23;20074;-86
2021/10/01 12:46:35;;;;;;;1.98;0.10;;;17.70;99.90;;;;;;6080144;23;20030;-84
2021/10/01 12:49:30;;;;;;;1.80;0.10;;;17.70;99.90;;;;;;6104619;23;20018;-86
2021/10/01 12:52:03;;;;;;;2.45;0.20;;;17.90;99.90;;;;;;6081000;23;20007;-86
2021/10/01 12:54:35;;;;;;;0.90;0.10;;;17.80;99.90;;;;;;6080935;23;20019;-87
2021/10/01 12:57:13;;;;;;;1.65;0.10;;;18.00;99.90;;;;;;6104822;23;20035;-87
2021/10/01 12:59:44;;;;;;;1.85;0.10;;;18.10;99.90;;;;;;6080433;23;20011;-86
2021/10/01 13:02:13;;;;;;;0.90;0.10;;;18.10;99.90;;;;;;6059855;23;20050;-87
2021/10/01 13:05:00;;;;;;;1.33;0.20;;;18.30;99.90;;;;;;6056513;23;20035;-87
2021/10/01 13:07:30;;;;;;;3.22;0.10;;;18.20;99.90;;;;;;6032991;23;20440;-89
2021/10/01 13:09:59;;;;;;;1.08;0.10;;;18.10;99.90;;;;;;6056952;23;20010;-87
2021/10/01 13:12:32;;;;;;;0.90;0.10;;;18.20;99.90;;;;;;6032512;23;20014;-86
2021/10/01 13:15:19;;;;;;;1.30;0.10;;;18.30;99.90;;;;;;6056732;23;20034;-87
2021/10/01 13:18:07;;;;;;;1.55;0.10;;;18.10;99.90;;;;;;6080557;23;20017;-86
2021/10/01 13:20:37;;;;;;;2.40;0.10;;;18.10;99.90;;;;;;6043557;23;20030;-87
2021/10/01 13:23:06;;;;;;;;;;;18.10;99.90;;;;;;6057163;23;20018;-88
2021/10/01 13:25:37;;;;;;;0.93;0.10;;;17.90;99.90;;;;;;6032754;23;19953;-86
2021/10/01 13:28:04;;;;;;;3.10;0.20;;;18.10;99.90;;;;;;6032929;23;20047;-87
2021/10/01 13:30:31;;;;;;;2.28;0.30;;;18.20;99.90;;;;;;6056086;23;20015;-87
2021/10/01 13:32:57;;;;;;;2.60;0.20;;;18.10;99.90;;;;;;6056579;23;20097;-87
2021/10/01 13:35:23;;;;;;;0.85;0.10;;;18.00;99.90;;;;;;6056598;23;20007;-86
2021/10/01 13:37:50;;;;;;;2.30;0.13;;;17.90;99.90;;;;;;6057525;23;20017;-88
2021/10/01 13:40:16;;;;;;;1.02;0.10;;;17.80;99.90;;;;;;6056838;23;20011;-89
2021/10/01 13:42:42;;;;;;;1.67;0.10;;;17.80;99.90;;;;;;6056991;23;20010;-87
2021/10/01 13:45:09;;;;;;;1.88;0.10;;;17.70;99.90;;;;;;6081159;23;20017;-87
2021/10/01 13:47:37;;;;;;;5.18;0.10;;;17.60;99.90;;;;;;6057335;23;20047;-87
2021/10/01 13:50:05;;;;;;;2.70;0.10;;;17.70;99.90;;;;;;6057177;23;20003;-87
2021/10/01 13:52:30;;;;;;;1.50;0.10;;;17.70;99.90;;;;;;6056874;23;20014;-87
2021/10/01 13:54:56;;;;;;;1.90;0.10;;;17.70;99.90;;;;;;6033588;23;20038;-86
2021/10/01 13:57:22;;;;;;;4.20;0.10;;;17.70;99.90;;;;;;6033645;23;20011;-87
2021/10/01 13:59:49;;;;;;;1.92;0.10;;;17.60;99.90;;;;;;6083806;23;20018;-87
2021/10/01 14:02:15;;;;;;;1.55;0.10;;;17.50;99.90;;;;;;6057022;23;20019;-84
2021/10/01 14:04:41;;;;;;;1.17;0.10;;;17.60;99.90;;;;;;6057224;23;20014;-86
2021/10/01 14:07:06;;;;;;;1.77;0.10;;;17.70;99.90;;;;;;6057378;23;20010;-86
2021/10/01 14:09:32;;;;;;;1.10;0.10;;;17.70;99.90;;;;;;6033504;23;20068;-87
2021/10/01 14:11:58;;;;;;;1.13;0.10;;;17.60;99.90;;;;;;6033344;23;20017;-87
2021/10/01 14:14:23;;;;;;;2.78;0.20;;;17.60;99.90;;;;;;6056622;23;20150;-87
2021/10/01 14:16:50;;;;;;;3.83;0.30;;;17.50;99.90;;;;;;6033529;23;20014;-85
2021/10/01 14:19:15;;;;;;;1.65;0.10;;;17.40;99.90;;;;;;6032137;23;20011;-86
2021/10/01 14:21:41;;;;;;;1.48;0.10;;;17.40;99.90;;;;;;6033312;23;20011;-87
2021/10/01 14:24:07;;;;;;;1.95;0.35;;;17.40;99.90;;;;;;6056758;23;20011;-86
2021/10/01 14:26:33;;;;;;;2.30;0.20;;;17.40;99.90;;;;;;6056773;23;20098;-85
2021/10/01 14:28:59;;;;;;;1.60;0.10;;;17.30;99.90;;;;;;6057095;23;20302;-88
2021/10/01 14:31:24;;;;;;;1.52;0.20;;;17.30;99.90;;;;;;6033320;23;20026;-86
2021/10/01 14:33:50;;;;;;;1.38;0.30;;;17.40;99.90;;;;;;6033199;23;20015;-87
2021/10/01 14:36:19;;;;;;;0.57;0.10;;;17.40;99.90;;;;;;6057062;23;20066;-87
2021/10/01 14:38:45;;;;;;;2.83;0.17;;;17.40;99.90;;;;;;6033051;23;20085;-87
2021/10/01 14:41:10;;;;;;;1.35;0.10;;;17.60;99.90;;;;;;6033199;23;20011;-86
2021/10/01 14:43:36;;;;;;;1.25;0.10;;;17.50;99.90;;;;;;6033167;23;20038;-88
2021/10/01 14:46:04;;;;;;;0.70;0.10;;;17.40;99.90;;;;;;6056669;23;20026;-87
2021/10/01 14:48:31;;;;;;;0.70;0.10;;;17.50;99.90;;;;;;6056685;23;20038;-87